sensor_id;sensor_type;location;lat;lon;timestamp;P1;durP1;ratioP1;P2;durP2;ratioP2
23394;SDS011;11870;53.084;18.206;2024-03-06T00:01:49;59.85;;;22.17;;
23394;SDS011;11870;53.084;18.206;2024-03-06T00:04:15;64.20;;;21.80;;
23394;SDS011;11870;53.084;18.206;2024-03-06T00:06:42;63.80;;;22.30;;
23394;SDS011;11870;53.084;18.206;2024-03-06T00:09:08;53.80;;;21.30;;
23394;SDS011;11870;53.084;18.206;2024-03-06T00:11:35;59.50;;;21.80;;
23394;SDS011;11870;53.084;18.206;2024-03-06T00:14:04;61.80;;;21.17;;
23394;SDS011;11870;53.084;18.206;2024-03-06T00:16:31;56.95;;;20.50;;
23394;SDS011;11870;53.084;18.206;2024-03-06T00:18:57;57.15;;;22.27;;
23394;SDS011;11870;53.084;18.206;2024-03-06T00:21:24;55.75;;;22.20;;
23394;SDS011;11870;53.084;18.206;2024-03-06T00:23:50;56.55;;;21.98;;
23394;SDS011;11870;53.084;18.206;2024-03-06T00:26:17;58.90;;;22.15;;
23394;SDS011;11870;53.084;18.206;2024-03-06T00:28:43;56.78;;;23.08;;
23394;SDS011;11870;53.084;18.206;2024-03-06T00:31:10;76.50;;;23.60;;
23394;SDS011;11870;53.084;18.206;2024-03-06T00:33:37;64.47;;;22.73;;
23394;SDS011;11870;53.084;18.206;2024-03-06T00:36:04;72.80;;;25.05;;
23394;SDS011;11870;53.084;18.206;2024-03-06T00:38:30;75.03;;;23.88;;
23394;SDS011;11870;53.084;18.206;2024-03-06T00:40:57;57.50;;;22.15;;
23394;SDS011;11870;53.084;18.206;2024-03-06T00:43:23;62.78;;;22.98;;
23394;SDS011;11870;53.084;18.206;2024-03-06T00:45:50;64.32;;;24.00;;
23394;SDS011;11870;53.084;18.206;2024-03-06T00:48:16;62.00;;;22.70;;
23394;SDS011;11870;53.084;18.206;2024-03-06T00:50:45;61.85;;;22.67;;
23394;SDS011;11870;53.084;18.206;2024-03-06T00:53:12;62.15;;;22.65;;
23394;SDS011;11870;53.084;18.206;2024-03-06T00:55:38;58.72;;;21.02;;
23394;SDS011;11870;53.084;18.206;2024-03-06T00:58:05;56.10;;;20.08;;
23394;SDS011;11870;53.084;18.206;2024-03-06T01:00:32;57.05;;;21.98;;
23394;SDS011;11870;53.084;18.206;2024-03-06T01:02:59;56.10;;;22.08;;
23394;SDS011;11870;53.084;18.206;2024-03-06T01:05:26;57.42;;;22.75;;
23394;SDS011;11870;53.084;18.206;2024-03-06T01:07:52;58.90;;;24.23;;
23394;SDS011;11870;53.084;18.206;2024-03-06T01:10:20;57.65;;;22.35;;
23394;SDS011;11870;53.084;18.206;2024-03-06T01:12:46;57.80;;;22.50;;
23394;SDS011;11870;53.084;18.206;2024-03-06T01:15:13;60.63;;;22.27;;
23394;SDS011;11870;53.084;18.206;2024-03-06T01:17:39;51.67;;;21.85;;
23394;SDS011;11870;53.084;18.206;2024-03-06T01:20:06;52.50;;;21.75;;
23394;SDS011;11870;53.084;18.206;2024-03-06T01:22:33;52.97;;;21.58;;
23394;SDS011;11870;53.084;18.206;2024-03-06T01:25:00;59.15;;;22.30;;
23394;SDS011;11870;53.084;18.206;2024-03-06T01:27:27;52.60;;;21.95;;
23394;SDS011;11870;53.084;18.206;2024-03-06T01:29:53;52.97;;;21.63;;
23394;SDS011;11870;53.084;18.206;2024-03-06T01:32:20;55.03;;;22.02;;
23394;SDS011;11870;53.084;18.206;2024-03-06T01:34:46;58.13;;;22.83;;
23394;SDS011;11870;53.084;18.206;2024-03-06T01:37:13;60.85;;;23.48;;
23394;SDS011;11870;53.084;18.206;2024-03-06T01:39:39;55.42;;;23.48;;
23394;SDS011;11870;53.084;18.206;2024-03-06T01:42:06;60.30;;;22.23;;
23394;SDS011;11870;53.084;18.206;2024-03-06T01:44:32;58.45;;;22.75;;
23394;SDS011;11870;53.084;18.206;2024-03-06T01:46:59;52.88;;;21.95;;
23394;SDS011;11870;53.084;18.206;2024-03-06T01:49:25;56.20;;;22.25;;
23394;SDS011;11870;53.084;18.206;2024-03-06T01:51:53;60.97;;;23.77;;
23394;SDS011;11870;53.084;18.206;2024-03-06T01:54:21;55.28;;;23.85;;
23394;SDS011;11870;53.084;18.206;2024-03-06T01:56:48;58.70;;;24.05;;
23394;SDS011;11870;53.084;18.206;2024-03-06T01:59:15;64.28;;;24.33;;
23394;SDS011;11870;53.084;18.206;2024-03-06T02:01:42;58.05;;;23.30;;
23394;SDS011;11870;53.084;18.206;2024-03-06T02:04:09;58.28;;;24.10;;
23394;SDS011;11870;53.084;18.206;2024-03-06T02:06:40;49.05;;;22.83;;
23394;SDS011;11870;53.084;18.206;2024-03-06T02:09:07;56.17;;;24.70;;
23394;SDS011;11870;53.084;18.206;2024-03-06T02:11:34;61.67;;;25.75;;
23394;SDS011;11870;53.084;18.206;2024-03-06T02:14:01;56.33;;;24.50;;
23394;SDS011;11870;53.084;18.206;2024-03-06T02:16:35;48.08;;;23.20;;
23394;SDS011;11870;53.084;18.206;2024-03-06T02:19:02;52.28;;;23.42;;
23394;SDS011;11870;53.084;18.206;2024-03-06T02:21:28;54.67;;;22.95;;
23394;SDS011;11870;53.084;18.206;2024-03-06T02:23:55;50.60;;;24.00;;
23394;SDS011;11870;53.084;18.206;2024-03-06T02:26:21;52.03;;;22.50;;
23394;SDS011;11870;53.084;18.206;2024-03-06T02:28:49;49.30;;;22.17;;
23394;SDS011;11870;53.084;18.206;2024-03-06T02:31:15;50.50;;;23.00;;
23394;SDS011;11870;53.084;18.206;2024-03-06T02:33:46;50.05;;;22.00;;
23394;SDS011;11870;53.084;18.206;2024-03-06T02:36:15;49.35;;;22.55;;
23394;SDS011;11870;53.084;18.206;2024-03-06T02:38:43;47.17;;;21.88;;
23394;SDS011;11870;53.084;18.206;2024-03-06T02:41:09;46.08;;;21.48;;
23394;SDS011;11870;53.084;18.206;2024-03-06T02:43:36;50.40;;;23.05;;
23394;SDS011;11870;53.084;18.206;2024-03-06T02:46:03;45.08;;;22.67;;
23394;SDS011;11870;53.084;18.206;2024-03-06T02:48:30;41.53;;;21.25;;
23394;SDS011;11870;53.084;18.206;2024-03-06T02:50:56;47.17;;;21.38;;
23394;SDS011;11870;53.084;18.206;2024-03-06T02:53:23;42.85;;;21.27;;
23394;SDS011;11870;53.084;18.206;2024-03-06T02:55:50;45.03;;;22.27;;
23394;SDS011;11870;53.084;18.206;2024-03-06T02:58:17;42.67;;;21.77;;
23394;SDS011;11870;53.084;18.206;2024-03-06T03:00:44;45.05;;;22.45;;
23394;SDS011;11870;53.084;18.206;2024-03-06T03:03:10;46.83;;;23.17;;
23394;SDS011;11870;53.084;18.206;2024-03-06T03:05:40;46.30;;;23.45;;
23394;SDS011;11870;53.084;18.206;2024-03-06T03:08:07;45.67;;;21.73;;
23394;SDS011;11870;53.084;18.206;2024-03-06T03:10:33;45.65;;;22.63;;
23394;SDS011;11870;53.084;18.206;2024-03-06T03:13:00;41.88;;;22.65;;
23394;SDS011;11870;53.084;18.206;2024-03-06T03:15:27;42.50;;;22.40;;
23394;SDS011;11870;53.084;18.206;2024-03-06T03:17:54;42.88;;;21.70;;
23394;SDS011;11870;53.084;18.206;2024-03-06T03:20:20;42.00;;;21.23;;
23394;SDS011;11870;53.084;18.206;2024-03-06T03:22:47;42.53;;;21.63;;
23394;SDS011;11870;53.084;18.206;2024-03-06T03:25:13;40.22;;;21.35;;
23394;SDS011;11870;53.084;18.206;2024-03-06T03:27:40;44.53;;;21.67;;
23394;SDS011;11870;53.084;18.206;2024-03-06T03:30:11;44.78;;;22.08;;
23394;SDS011;11870;53.084;18.206;2024-03-06T03:32:38;46.88;;;22.65;;
23394;SDS011;11870;53.084;18.206;2024-03-06T03:35:05;44.17;;;22.05;;
23394;SDS011;11870;53.084;18.206;2024-03-06T03:37:31;41.65;;;21.35;;
23394;SDS011;11870;53.084;18.206;2024-03-06T03:39:58;45.63;;;22.27;;
23394;SDS011;11870;53.084;18.206;2024-03-06T03:42:25;43.80;;;22.25;;
23394;SDS011;11870;53.084;18.206;2024-03-06T03:44:51;41.15;;;21.63;;
23394;SDS011;11870;53.084;18.206;2024-03-06T03:47:18;43.42;;;20.70;;
23394;SDS011;11870;53.084;18.206;2024-03-06T03:49:44;44.97;;;20.77;;
23394;SDS011;11870;53.084;18.206;2024-03-06T03:52:12;43.65;;;21.67;;
23394;SDS011;11870;53.084;18.206;2024-03-06T03:54:39;44.92;;;21.55;;
23394;SDS011;11870;53.084;18.206;2024-03-06T03:57:05;41.67;;;21.05;;
23394;SDS011;11870;53.084;18.206;2024-03-06T03:59:33;43.65;;;21.40;;
23394;SDS011;11870;53.084;18.206;2024-03-06T04:02:00;49.33;;;25.23;;
23394;SDS011;11870;53.084;18.206;2024-03-06T04:04:27;47.75;;;23.65;;
23394;SDS011;11870;53.084;18.206;2024-03-06T04:06:54;44.28;;;23.67;;
23394;SDS011;11870;53.084;18.206;2024-03-06T04:09:24;43.55;;;21.75;;
23394;SDS011;11870;53.084;18.206;2024-03-06T04:11:51;43.60;;;21.05;;
23394;SDS011;11870;53.084;18.206;2024-03-06T04:14:17;43.63;;;21.58;;
23394;SDS011;11870;53.084;18.206;2024-03-06T04:16:45;43.38;;;21.95;;
23394;SDS011;11870;53.084;18.206;2024-03-06T04:19:12;41.75;;;21.30;;
23394;SDS011;11870;53.084;18.206;2024-03-06T04:21:41;42.65;;;22.17;;
23394;SDS011;11870;53.084;18.206;2024-03-06T04:24:08;44.88;;;22.50;;
23394;SDS011;11870;53.084;18.206;2024-03-06T04:26:35;46.25;;;23.17;;
23394;SDS011;11870;53.084;18.206;2024-03-06T04:29:01;48.88;;;23.13;;
23394;SDS011;11870;53.084;18.206;2024-03-06T04:31:31;49.88;;;24.08;;
23394;SDS011;11870;53.084;18.206;2024-03-06T04:33:57;51.20;;;24.73;;
23394;SDS011;11870;53.084;18.206;2024-03-06T04:36:24;50.60;;;24.02;;
23394;SDS011;11870;53.084;18.206;2024-03-06T04:38:50;52.70;;;24.30;;
23394;SDS011;11870;53.084;18.206;2024-03-06T04:41:20;52.70;;;25.35;;
23394;SDS011;11870;53.084;18.206;2024-03-06T04:43:46;56.13;;;26.15;;
23394;SDS011;11870;53.084;18.206;2024-03-06T04:46:13;57.90;;;27.33;;
23394;SDS011;11870;53.084;18.206;2024-03-06T04:48:40;60.13;;;27.13;;
23394;SDS011;11870;53.084;18.206;2024-03-06T04:51:06;63.97;;;28.10;;
23394;SDS011;11870;53.084;18.206;2024-03-06T04:53:35;56.75;;;27.40;;
23394;SDS011;11870;53.084;18.206;2024-03-06T04:56:02;62.33;;;28.23;;
23394;SDS011;11870;53.084;18.206;2024-03-06T04:58:31;69.72;;;29.35;;
23394;SDS011;11870;53.084;18.206;2024-03-06T05:00:58;64.97;;;30.38;;
23394;SDS011;11870;53.084;18.206;2024-03-06T05:03:24;70.10;;;28.80;;
23394;SDS011;11870;53.084;18.206;2024-03-06T05:05:51;66.75;;;29.83;;
23394;SDS011;11870;53.084;18.206;2024-03-06T05:08:20;67.57;;;30.48;;
23394;SDS011;11870;53.084;18.206;2024-03-06T05:10:47;70.55;;;29.70;;
23394;SDS011;11870;53.084;18.206;2024-03-06T05:13:14;82.00;;;32.85;;
23394;SDS011;11870;53.084;18.206;2024-03-06T05:15:40;78.35;;;31.65;;
23394;SDS011;11870;53.084;18.206;2024-03-06T05:18:07;105.97;;;42.95;;
23394;SDS011;11870;53.084;18.206;2024-03-06T05:20:35;94.93;;;37.80;;
23394;SDS011;11870;53.084;18.206;2024-03-06T05:23:01;86.82;;;35.85;;
23394;SDS011;11870;53.084;18.206;2024-03-06T05:25:28;88.93;;;35.80;;
23394;SDS011;11870;53.084;18.206;2024-03-06T05:27:54;81.18;;;35.38;;
23394;SDS011;11870;53.084;18.206;2024-03-06T05:30:20;81.88;;;34.10;;
23394;SDS011;11870;53.084;18.206;2024-03-06T05:32:47;91.72;;;36.20;;
23394;SDS011;11870;53.084;18.206;2024-03-06T05:35:13;93.55;;;36.70;;
23394;SDS011;11870;53.084;18.206;2024-03-06T05:37:40;92.05;;;36.75;;
23394;SDS011;11870;53.084;18.206;2024-03-06T05:40:06;94.00;;;35.58;;
23394;SDS011;11870;53.084;18.206;2024-03-06T05:42:34;82.75;;;35.97;;
23394;SDS011;11870;53.084;18.206;2024-03-06T05:45:00;92.00;;;37.30;;
23394;SDS011;11870;53.084;18.206;2024-03-06T05:47:33;98.03;;;37.60;;
23394;SDS011;11870;53.084;18.206;2024-03-06T05:49:59;92.20;;;37.33;;
23394;SDS011;11870;53.084;18.206;2024-03-06T05:52:30;103.13;;;38.75;;
23394;SDS011;11870;53.084;18.206;2024-03-06T05:54:57;97.72;;;38.15;;
23394;SDS011;11870;53.084;18.206;2024-03-06T05:57:23;101.97;;;39.22;;
23394;SDS011;11870;53.084;18.206;2024-03-06T05:59:50;95.47;;;39.15;;
23394;SDS011;11870;53.084;18.206;2024-03-06T06:02:16;132.77;;;45.92;;
23394;SDS011;11870;53.084;18.206;2024-03-06T06:04:43;99.78;;;39.65;;
23394;SDS011;11870;53.084;18.206;2024-03-06T06:07:10;93.03;;;38.92;;
23394;SDS011;11870;53.084;18.206;2024-03-06T06:09:36;131.77;;;48.45;;
23394;SDS011;11870;53.084;18.206;2024-03-06T06:12:02;107.05;;;41.58;;
23394;SDS011;11870;53.084;18.206;2024-03-06T06:14:29;117.57;;;43.88;;
23394;SDS011;11870;53.084;18.206;2024-03-06T06:16:56;121.45;;;44.47;;
23394;SDS011;11870;53.084;18.206;2024-03-06T06:19:22;114.15;;;43.72;;
23394;SDS011;11870;53.084;18.206;2024-03-06T06:21:49;148.32;;;50.13;;
23394;SDS011;11870;53.084;18.206;2024-03-06T06:24:15;124.97;;;46.33;;
23394;SDS011;11870;53.084;18.206;2024-03-06T06:26:42;121.40;;;46.03;;
23394;SDS011;11870;53.084;18.206;2024-03-06T06:29:08;128.20;;;45.65;;
23394;SDS011;11870;53.084;18.206;2024-03-06T06:31:34;129.43;;;47.00;;
23394;SDS011;11870;53.084;18.206;2024-03-06T06:34:01;136.60;;;48.85;;
23394;SDS011;11870;53.084;18.206;2024-03-06T06:36:27;123.28;;;47.33;;
23394;SDS011;11870;53.084;18.206;2024-03-06T06:38:55;126.18;;;47.67;;
23394;SDS011;11870;53.084;18.206;2024-03-06T06:41:21;108.75;;;43.58;;
23394;SDS011;11870;53.084;18.206;2024-03-06T06:43:49;96.75;;;41.28;;
23394;SDS011;11870;53.084;18.206;2024-03-06T06:46:17;110.47;;;44.75;;
23394;SDS011;11870;53.084;18.206;2024-03-06T06:48:44;111.80;;;45.00;;
23394;SDS011;11870;53.084;18.206;2024-03-06T06:51:11;113.28;;;43.42;;
23394;SDS011;11870;53.084;18.206;2024-03-06T06:53:39;119.65;;;47.78;;
23394;SDS011;11870;53.084;18.206;2024-03-06T06:56:07;114.50;;;44.90;;
23394;SDS011;11870;53.084;18.206;2024-03-06T06:58:33;106.80;;;43.33;;
23394;SDS011;11870;53.084;18.206;2024-03-06T07:01:00;112.10;;;44.80;;
23394;SDS011;11870;53.084;18.206;2024-03-06T07:03:27;102.00;;;41.67;;
23394;SDS011;11870;53.084;18.206;2024-03-06T07:05:56;115.18;;;45.97;;
23394;SDS011;11870;53.084;18.206;2024-03-06T07:08:22;114.32;;;43.40;;
23394;SDS011;11870;53.084;18.206;2024-03-06T07:10:49;103.65;;;42.28;;
23394;SDS011;11870;53.084;18.206;2024-03-06T07:13:19;115.13;;;45.03;;
23394;SDS011;11870;53.084;18.206;2024-03-06T07:15:45;120.82;;;46.45;;
23394;SDS011;11870;53.084;18.206;2024-03-06T07:18:12;114.68;;;43.85;;
23394;SDS011;11870;53.084;18.206;2024-03-06T07:20:39;114.20;;;45.10;;
23394;SDS011;11870;53.084;18.206;2024-03-06T07:23:06;105.75;;;41.58;;
23394;SDS011;11870;53.084;18.206;2024-03-06T07:25:33;111.50;;;44.70;;
23394;SDS011;11870;53.084;18.206;2024-03-06T07:28:00;97.40;;;39.58;;
23394;SDS011;11870;53.084;18.206;2024-03-06T07:30:27;106.55;;;40.17;;
23394;SDS011;11870;53.084;18.206;2024-03-06T07:32:55;117.85;;;42.67;;
23394;SDS011;11870;53.084;18.206;2024-03-06T07:35:22;112.82;;;43.00;;
23394;SDS011;11870;53.084;18.206;2024-03-06T07:37:49;100.75;;;40.95;;
23394;SDS011;11870;53.084;18.206;2024-03-06T07:40:15;93.30;;;38.60;;
23394;SDS011;11870;53.084;18.206;2024-03-06T07:42:42;94.85;;;38.63;;
23394;SDS011;11870;53.084;18.206;2024-03-06T07:45:09;85.43;;;36.63;;
23394;SDS011;11870;53.084;18.206;2024-03-06T07:47:36;86.03;;;37.00;;
23394;SDS011;11870;53.084;18.206;2024-03-06T07:50:04;107.00;;;39.80;;
23394;SDS011;11870;53.084;18.206;2024-03-06T07:52:32;93.63;;;36.88;;
23394;SDS011;11870;53.084;18.206;2024-03-06T07:54:59;83.85;;;34.55;;
23394;SDS011;11870;53.084;18.206;2024-03-06T07:57:25;72.53;;;32.38;;
23394;SDS011;11870;53.084;18.206;2024-03-06T07:59:51;74.63;;;33.67;;
23394;SDS011;11870;53.084;18.206;2024-03-06T08:02:20;78.03;;;33.58;;
23394;SDS011;11870;53.084;18.206;2024-03-06T08:04:47;77.63;;;32.88;;
23394;SDS011;11870;53.084;18.206;2024-03-06T08:07:14;71.80;;;33.05;;
23394;SDS011;11870;53.084;18.206;2024-03-06T08:09:40;72.88;;;33.53;;
23394;SDS011;11870;53.084;18.206;2024-03-06T08:12:08;74.70;;;30.67;;
23394;SDS011;11870;53.084;18.206;2024-03-06T08:14:34;69.85;;;30.48;;
23394;SDS011;11870;53.084;18.206;2024-03-06T08:17:02;73.55;;;29.25;;
23394;SDS011;11870;53.084;18.206;2024-03-06T08:19:28;62.00;;;27.95;;
23394;SDS011;11870;53.084;18.206;2024-03-06T08:21:54;64.80;;;28.80;;
23394;SDS011;11870;53.084;18.206;2024-03-06T08:24:21;64.50;;;29.08;;
23394;SDS011;11870;53.084;18.206;2024-03-06T08:26:47;60.75;;;28.15;;
23394;SDS011;11870;53.084;18.206;2024-03-06T08:29:14;55.67;;;26.65;;
23394;SDS011;11870;53.084;18.206;2024-03-06T08:31:41;56.05;;;27.67;;
23394;SDS011;11870;53.084;18.206;2024-03-06T08:34:07;52.70;;;26.92;;
23394;SDS011;11870;53.084;18.206;2024-03-06T08:36:33;53.40;;;25.92;;
23394;SDS011;11870;53.084;18.206;2024-03-06T08:39:00;54.47;;;27.23;;
23394;SDS011;11870;53.084;18.206;2024-03-06T08:41:26;48.95;;;24.35;;
23394;SDS011;11870;53.084;18.206;2024-03-06T08:43:53;49.67;;;24.08;;
23394;SDS011;11870;53.084;18.206;2024-03-06T08:46:19;51.10;;;23.52;;
23394;SDS011;11870;53.084;18.206;2024-03-06T08:48:46;53.53;;;23.27;;
23394;SDS011;11870;53.084;18.206;2024-03-06T08:51:12;47.45;;;22.65;;
23394;SDS011;11870;53.084;18.206;2024-03-06T08:53:39;41.30;;;21.75;;
23394;SDS011;11870;53.084;18.206;2024-03-06T08:56:06;49.05;;;21.50;;
23394;SDS011;11870;53.084;18.206;2024-03-06T08:58:32;47.15;;;25.08;;
23394;SDS011;11870;53.084;18.206;2024-03-06T09:00:59;40.72;;;21.05;;
23394;SDS011;11870;53.084;18.206;2024-03-06T09:03:25;39.85;;;20.15;;
23394;SDS011;11870;53.084;18.206;2024-03-06T09:05:52;41.80;;;20.25;;
23394;SDS011;11870;53.084;18.206;2024-03-06T09:08:18;36.30;;;19.02;;
23394;SDS011;11870;53.084;18.206;2024-03-06T09:10:45;39.85;;;19.98;;
23394;SDS011;11870;53.084;18.206;2024-03-06T09:13:11;38.67;;;18.48;;
23394;SDS011;11870;53.084;18.206;2024-03-06T09:15:38;32.40;;;17.30;;
23394;SDS011;11870;53.084;18.206;2024-03-06T09:18:04;34.58;;;17.05;;
23394;SDS011;11870;53.084;18.206;2024-03-06T09:20:31;30.65;;;15.70;;
23394;SDS011;11870;53.084;18.206;2024-03-06T09:22:58;51.22;;;22.17;;
23394;SDS011;11870;53.084;18.206;2024-03-06T09:25:25;36.60;;;18.00;;
23394;SDS011;11870;53.084;18.206;2024-03-06T09:27:52;27.55;;;15.82;;
23394;SDS011;11870;53.084;18.206;2024-03-06T09:30:19;33.15;;;17.10;;
23394;SDS011;11870;53.084;18.206;2024-03-06T09:32:45;28.77;;;16.73;;
23394;SDS011;11870;53.084;18.206;2024-03-06T09:35:11;27.30;;;15.38;;
23394;SDS011;11870;53.084;18.206;2024-03-06T09:37:39;33.50;;;17.08;;
23394;SDS011;11870;53.084;18.206;2024-03-06T09:40:08;37.03;;;16.58;;
23394;SDS011;11870;53.084;18.206;2024-03-06T09:42:36;29.63;;;15.82;;
23394;SDS011;11870;53.084;18.206;2024-03-06T09:45:02;30.15;;;15.45;;
23394;SDS011;11870;53.084;18.206;2024-03-06T09:47:29;31.35;;;16.20;;
23394;SDS011;11870;53.084;18.206;2024-03-06T09:49:56;30.70;;;16.17;;
23394;SDS011;11870;53.084;18.206;2024-03-06T09:52:23;48.50;;;23.92;;
23394;SDS011;11870;53.084;18.206;2024-03-06T09:54:50;40.42;;;18.27;;
23394;SDS011;11870;53.084;18.206;2024-03-06T09:57:17;32.95;;;16.45;;
23394;SDS011;11870;53.084;18.206;2024-03-06T09:59:43;31.02;;;16.85;;
23394;SDS011;11870;53.084;18.206;2024-03-06T10:02:30;32.80;;;16.60;;
23394;SDS011;11870;53.084;18.206;2024-03-06T10:05:03;33.95;;;17.05;;
23394;SDS011;11870;53.084;18.206;2024-03-06T10:07:31;29.00;;;16.25;;
23394;SDS011;11870;53.084;18.206;2024-03-06T10:09:57;33.25;;;16.95;;
23394;SDS011;11870;53.084;18.206;2024-03-06T10:12:24;33.95;;;17.15;;
23394;SDS011;11870;53.084;18.206;2024-03-06T10:14:52;33.92;;;16.27;;
23394;SDS011;11870;53.084;18.206;2024-03-06T10:17:21;35.95;;;17.55;;
23394;SDS011;11870;53.084;18.206;2024-03-06T10:19:49;36.97;;;17.38;;
23394;SDS011;11870;53.084;18.206;2024-03-06T10:22:19;36.15;;;17.27;;
23394;SDS011;11870;53.084;18.206;2024-03-06T10:24:45;36.85;;;17.95;;
23394;SDS011;11870;53.084;18.206;2024-03-06T10:27:16;35.55;;;18.45;;
23394;SDS011;11870;53.084;18.206;2024-03-06T10:29:43;34.55;;;17.30;;
23394;SDS011;11870;53.084;18.206;2024-03-06T10:32:16;36.42;;;18.17;;
23394;SDS011;11870;53.084;18.206;2024-03-06T10:34:45;33.83;;;17.40;;
23394;SDS011;11870;53.084;18.206;2024-03-06T10:37:11;40.72;;;17.33;;
23394;SDS011;11870;53.084;18.206;2024-03-06T10:39:39;29.77;;;16.38;;
23394;SDS011;11870;53.084;18.206;2024-03-06T10:42:09;30.73;;;17.10;;
23394;SDS011;11870;53.084;18.206;2024-03-06T10:44:38;34.55;;;18.10;;
23394;SDS011;11870;53.084;18.206;2024-03-06T10:47:10;32.50;;;16.98;;
23394;SDS011;11870;53.084;18.206;2024-03-06T10:49:37;30.85;;;17.27;;
23394;SDS011;11870;53.084;18.206;2024-03-06T10:52:04;29.67;;;17.63;;
23394;SDS011;11870;53.084;18.206;2024-03-06T10:54:34;31.92;;;18.00;;
23394;SDS011;11870;53.084;18.206;2024-03-06T10:57:04;30.70;;;17.42;;
23394;SDS011;11870;53.084;18.206;2024-03-06T10:59:30;31.73;;;17.50;;
23394;SDS011;11870;53.084;18.206;2024-03-06T11:01:58;30.30;;;18.10;;
23394;SDS011;11870;53.084;18.206;2024-03-06T11:04:28;36.53;;;18.40;;
23394;SDS011;11870;53.084;18.206;2024-03-06T11:06:55;32.55;;;18.20;;
23394;SDS011;11870;53.084;18.206;2024-03-06T11:09:22;33.25;;;18.65;;
23394;SDS011;11870;53.084;18.206;2024-03-06T11:11:50;30.38;;;17.35;;
23394;SDS011;11870;53.084;18.206;2024-03-06T11:14:23;42.50;;;19.05;;
23394;SDS011;11870;53.084;18.206;2024-03-06T11:16:57;31.10;;;17.60;;
23394;SDS011;11870;53.084;18.206;2024-03-06T11:19:24;37.28;;;17.88;;
23394;SDS011;11870;53.084;18.206;2024-03-06T11:21:51;33.45;;;18.63;;
23394;SDS011;11870;53.084;18.206;2024-03-06T11:24:18;34.20;;;19.02;;
23394;SDS011;11870;53.084;18.206;2024-03-06T11:26:48;30.10;;;17.58;;
23394;SDS011;11870;53.084;18.206;2024-03-06T11:29:16;31.45;;;18.20;;
23394;SDS011;11870;53.084;18.206;2024-03-06T11:32:03;31.02;;;17.40;;
23394;SDS011;11870;53.084;18.206;2024-03-06T11:34:32;30.98;;;16.80;;
23394;SDS011;11870;53.084;18.206;2024-03-06T11:36:59;31.52;;;16.88;;
23394;SDS011;11870;53.084;18.206;2024-03-06T11:39:28;29.25;;;18.00;;
23394;SDS011;11870;53.084;18.206;2024-03-06T11:41:59;30.55;;;16.90;;
23394;SDS011;11870;53.084;18.206;2024-03-06T11:44:26;30.52;;;17.23;;
23394;SDS011;11870;53.084;18.206;2024-03-06T11:47:04;34.35;;;17.35;;
23394;SDS011;11870;53.084;18.206;2024-03-06T11:49:35;30.85;;;17.23;;
23394;SDS011;11870;53.084;18.206;2024-03-06T11:52:05;28.90;;;16.40;;
23394;SDS011;11870;53.084;18.206;2024-03-06T11:54:33;32.22;;;17.15;;
23394;SDS011;11870;53.084;18.206;2024-03-06T11:57:01;27.27;;;16.15;;
23394;SDS011;11870;53.084;18.206;2024-03-06T11:59:28;34.22;;;17.52;;
23394;SDS011;11870;53.084;18.206;2024-03-06T12:01:57;28.83;;;17.13;;
23394;SDS011;11870;53.084;18.206;2024-03-06T12:04:27;28.13;;;17.25;;
23394;SDS011;11870;53.084;18.206;2024-03-06T12:06:57;33.63;;;17.33;;
23394;SDS011;11870;53.084;18.206;2024-03-06T12:09:35;31.50;;;16.95;;
23394;SDS011;11870;53.084;18.206;2024-03-06T12:12:02;26.05;;;16.27;;
23394;SDS011;11870;53.084;18.206;2024-03-06T12:14:29;26.80;;;15.65;;
23394;SDS011;11870;53.084;18.206;2024-03-06T12:16:56;28.00;;;16.48;;
23394;SDS011;11870;53.084;18.206;2024-03-06T12:19:25;26.50;;;15.63;;
23394;SDS011;11870;53.084;18.206;2024-03-06T12:21:52;29.23;;;16.38;;
23394;SDS011;11870;53.084;18.206;2024-03-06T12:24:19;34.15;;;16.42;;
23394;SDS011;11870;53.084;18.206;2024-03-06T12:26:46;28.70;;;16.00;;
23394;SDS011;11870;53.084;18.206;2024-03-06T12:29:18;30.38;;;15.93;;
23394;SDS011;11870;53.084;18.206;2024-03-06T12:31:45;29.00;;;15.93;;
23394;SDS011;11870;53.084;18.206;2024-03-06T12:34:15;28.15;;;16.00;;
23394;SDS011;11870;53.084;18.206;2024-03-06T12:36:42;25.80;;;14.55;;
23394;SDS011;11870;53.084;18.206;2024-03-06T12:39:09;29.90;;;14.65;;
23394;SDS011;11870;53.084;18.206;2024-03-06T12:41:39;24.08;;;13.63;;
23394;SDS011;11870;53.084;18.206;2024-03-06T12:44:05;26.42;;;14.32;;
23394;SDS011;11870;53.084;18.206;2024-03-06T12:46:32;24.73;;;13.35;;
23394;SDS011;11870;53.084;18.206;2024-03-06T12:48:59;27.30;;;15.13;;
23394;SDS011;11870;53.084;18.206;2024-03-06T12:51:25;23.70;;;13.60;;
23394;SDS011;11870;53.084;18.206;2024-03-06T12:53:52;24.88;;;13.32;;
23394;SDS011;11870;53.084;18.206;2024-03-06T12:56:18;28.40;;;12.85;;
23394;SDS011;11870;53.084;18.206;2024-03-06T12:58:45;27.73;;;14.35;;
23394;SDS011;11870;53.084;18.206;2024-03-06T13:01:12;25.10;;;13.90;;
23394;SDS011;11870;53.084;18.206;2024-03-06T13:03:38;23.63;;;13.27;;
23394;SDS011;11870;53.084;18.206;2024-03-06T13:06:05;24.77;;;13.20;;
23394;SDS011;11870;53.084;18.206;2024-03-06T13:08:32;21.40;;;12.35;;
23394;SDS011;11870;53.084;18.206;2024-03-06T13:10:58;22.40;;;12.68;;
23394;SDS011;11870;53.084;18.206;2024-03-06T13:13:25;22.48;;;11.80;;
23394;SDS011;11870;53.084;18.206;2024-03-06T13:15:54;20.25;;;12.10;;
23394;SDS011;11870;53.084;18.206;2024-03-06T13:18:20;23.45;;;12.32;;
23394;SDS011;11870;53.084;18.206;2024-03-06T13:20:47;21.63;;;11.85;;
23394;SDS011;11870;53.084;18.206;2024-03-06T13:23:13;21.38;;;12.13;;
23394;SDS011;11870;53.084;18.206;2024-03-06T13:25:40;24.58;;;11.73;;
23394;SDS011;11870;53.084;18.206;2024-03-06T13:28:06;22.30;;;11.07;;
23394;SDS011;11870;53.084;18.206;2024-03-06T13:30:34;21.17;;;11.60;;
23394;SDS011;11870;53.084;18.206;2024-03-06T13:33:01;19.08;;;10.50;;
23394;SDS011;11870;53.084;18.206;2024-03-06T13:35:27;17.67;;;10.70;;
23394;SDS011;11870;53.084;18.206;2024-03-06T13:37:54;17.98;;;10.35;;
23394;SDS011;11870;53.084;18.206;2024-03-06T13:40:20;20.98;;;10.52;;
23394;SDS011;11870;53.084;18.206;2024-03-06T13:42:48;17.55;;;9.52;;
23394;SDS011;11870;53.084;18.206;2024-03-06T13:45:14;18.00;;;9.93;;
23394;SDS011;11870;53.084;18.206;2024-03-06T13:47:41;19.52;;;10.18;;
23394;SDS011;11870;53.084;18.206;2024-03-06T13:50:09;17.13;;;8.48;;
23394;SDS011;11870;53.084;18.206;2024-03-06T13:52:36;16.25;;;9.07;;
23394;SDS011;11870;53.084;18.206;2024-03-06T13:55:03;20.30;;;10.55;;
23394;SDS011;11870;53.084;18.206;2024-03-06T13:57:30;17.98;;;9.50;;
23394;SDS011;11870;53.084;18.206;2024-03-06T14:00:02;17.52;;;9.52;;
23394;SDS011;11870;53.084;18.206;2024-03-06T14:02:47;16.67;;;9.20;;
23394;SDS011;11870;53.084;18.206;2024-03-06T14:05:14;19.45;;;9.57;;
23394;SDS011;11870;53.084;18.206;2024-03-06T14:07:41;17.77;;;8.98;;
23394;SDS011;11870;53.084;18.206;2024-03-06T14:10:07;19.35;;;9.57;;